Windy, Kentucky
Current Conditions -  °F | °C
As of 1:56 PM on Sunday 21 Dec 2014 (Local Time) from KEKQ Reporting Station
Clear Clear  
Wind Chill: 47°   Ceiling: Unl
Heat Index: 49°   Visibility: 10mi
Dew Point: 29°   Wind: 5mph
Humidity: 46%   Direction: 50°NE
Pressure: 30.19"   Gusts: NA
Location:  36.8129°N, 84.8215°W
Report Text: KEKQ 211856Z AUTO 05004KT 10SM CLR 09/M02 A3019 RMK AO2 T00941016 SLP232
Loading
Personal Weather Stations






























Interactive Weather Map New forecast layout! Learn more

10-Day Weather Forecast

Advertisements
Track Severe Weather on mobile